sensor_id;sensor_type;location;lat;lon;timestamp;pressure;altitude;pressure_sealevel;temperature;humidity
62952;BME280;52163;52.212;-1.002;2023-04-27T00:00:32;100789.38;;;6.46;72.49
62952;BME280;52163;52.212;-1.002;2023-04-27T00:02:58;100791.54;;;6.45;72.34
62952;BME280;52163;52.212;-1.002;2023-04-27T00:05:23;100790.80;;;6.41;72.45
62952;BME280;52163;52.212;-1.002;2023-04-27T00:07:48;100788.98;;;6.38;72.74
62952;BME280;52163;52.212;-1.002;2023-04-27T00:10:14;100785.15;;;6.32;72.80
62952;BME280;52163;52.212;-1.002;2023-04-27T00:12:39;100788.88;;;6.27;72.92
62952;BME280;52163;52.212;-1.002;2023-04-27T00:15:07;100781.61;;;6.20;73.27
62952;BME280;52163;52.212;-1.002;2023-04-27T00:17:33;100776.65;;;6.11;73.31
62952;BME280;52163;52.212;-1.002;2023-04-27T00:19:58;100771.25;;;6.05;73.46
62952;BME280;52163;52.212;-1.002;2023-04-27T00:22:25;100766.42;;;5.98;74.22
62952;BME280;52163;52.212;-1.002;2023-04-27T00:24:50;100768.22;;;5.92;74.67
62952;BME280;52163;52.212;-1.002;2023-04-27T00:27:16;100766.52;;;5.86;74.90
62952;BME280;52163;52.212;-1.002;2023-04-27T00:29:41;100763.21;;;5.85;75.31
62952;BME280;52163;52.212;-1.002;2023-04-27T00:32:10;100757.21;;;5.86;75.37
62952;BME280;52163;52.212;-1.002;2023-04-27T00:34:36;100757.79;;;5.90;75.52
62952;BME280;52163;52.212;-1.002;2023-04-27T00:37:02;100758.93;;;5.92;75.34
62952;BME280;52163;52.212;-1.002;2023-04-27T00:39:27;100749.10;;;5.92;75.45
62952;BME280;52163;52.212;-1.002;2023-04-27T00:41:53;100747.94;;;5.90;75.49
62952;BME280;52163;52.212;-1.002;2023-04-27T00:44:24;100740.90;;;5.86;75.58
62952;BME280;52163;52.212;-1.002;2023-04-27T00:46:50;100743.70;;;5.81;75.52
62952;BME280;52163;52.212;-1.002;2023-04-27T00:49:16;100744.30;;;5.75;75.25
62952;BME280;52163;52.212;-1.002;2023-04-27T00:51:42;100741.76;;;5.67;75.64
62952;BME280;52163;52.212;-1.002;2023-04-27T00:54:07;100738.82;;;5.61;75.98
62952;BME280;52163;52.212;-1.002;2023-04-27T00:56:33;100736.98;;;5.54;75.90
62952;BME280;52163;52.212;-1.002;2023-04-27T00:58:59;100729.85;;;5.47;76.01
62952;BME280;52163;52.212;-1.002;2023-04-27T01:01:25;100728.33;;;5.40;76.43
62952;BME280;52163;52.212;-1.002;2023-04-27T01:03:50;100726.05;;;5.36;76.60
62952;BME280;52163;52.212;-1.002;2023-04-27T01:06:16;100723.47;;;5.34;77.04
62952;BME280;52163;52.212;-1.002;2023-04-27T01:08:41;100724.46;;;5.36;76.90
62952;BME280;52163;52.212;-1.002;2023-04-27T01:11:07;100720.14;;;5.34;76.87
62952;BME280;52163;52.212;-1.002;2023-04-27T01:13:32;100721.44;;;5.32;77.04
62952;BME280;52163;52.212;-1.002;2023-04-27T01:15:58;100715.48;;;5.27;77.12
62952;BME280;52163;52.212;-1.002;2023-04-27T01:18:23;100715.46;;;5.22;77.37
62952;BME280;52163;52.212;-1.002;2023-04-27T01:20:48;100714.39;;;5.18;77.42
62952;BME280;52163;52.212;-1.002;2023-04-27T01:23:14;100717.74;;;5.12;77.33
62952;BME280;52163;52.212;-1.002;2023-04-27T01:25:40;100717.66;;;5.04;77.74
62952;BME280;52163;52.212;-1.002;2023-04-27T01:28:05;100720.29;;;4.99;78.13
62952;BME280;52163;52.212;-1.002;2023-04-27T01:30:31;100722.88;;;4.95;78.19
62952;BME280;52163;52.212;-1.002;2023-04-27T01:32:56;100723.99;;;4.88;78.11
62952;BME280;52163;52.212;-1.002;2023-04-27T01:35:22;100734.81;;;4.83;78.65
62952;BME280;52163;52.212;-1.002;2023-04-27T01:37:47;100738.74;;;4.81;79.29
62952;BME280;52163;52.212;-1.002;2023-04-27T01:40:13;100736.37;;;4.78;79.14
62952;BME280;52163;52.212;-1.002;2023-04-27T01:42:39;100735.77;;;4.76;79.44
62952;BME280;52163;52.212;-1.002;2023-04-27T01:45:05;100737.38;;;4.74;79.59
62952;BME280;52163;52.212;-1.002;2023-04-27T01:47:31;100736.95;;;4.72;79.75
62952;BME280;52163;52.212;-1.002;2023-04-27T01:49:57;100739.64;;;4.70;79.83
62952;BME280;52163;52.212;-1.002;2023-04-27T01:52:22;100738.24;;;4.64;80.13
62952;BME280;52163;52.212;-1.002;2023-04-27T01:54:47;100737.14;;;4.60;79.91
62952;BME280;52163;52.212;-1.002;2023-04-27T01:57:13;100744.48;;;4.54;80.12
62952;BME280;52163;52.212;-1.002;2023-04-27T01:59:38;100745.70;;;4.49;80.45
62952;BME280;52163;52.212;-1.002;2023-04-27T02:02:04;100751.41;;;4.45;80.63
62952;BME280;52163;52.212;-1.002;2023-04-27T02:04:29;100759.17;;;4.44;81.20
62952;BME280;52163;52.212;-1.002;2023-04-27T02:06:55;100756.71;;;4.44;81.21
62952;BME280;52163;52.212;-1.002;2023-04-27T02:09:20;100755.67;;;4.43;81.38
62952;BME280;52163;52.212;-1.002;2023-04-27T02:11:46;100749.17;;;4.44;81.51
62952;BME280;52163;52.212;-1.002;2023-04-27T02:14:12;100749.80;;;4.47;81.70
62952;BME280;52163;52.212;-1.002;2023-04-27T02:16:37;100750.14;;;4.47;81.75
62952;BME280;52163;52.212;-1.002;2023-04-27T02:19:02;100749.27;;;4.47;81.81
62952;BME280;52163;52.212;-1.002;2023-04-27T02:21:28;100746.36;;;4.45;81.62
62952;BME280;52163;52.212;-1.002;2023-04-27T02:23:54;100750.61;;;4.43;81.99
62952;BME280;52163;52.212;-1.002;2023-04-27T02:26:20;100752.30;;;4.39;81.69
62952;BME280;52163;52.212;-1.002;2023-04-27T02:28:47;100751.21;;;4.34;81.80
62952;BME280;52163;52.212;-1.002;2023-04-27T02:31:13;100752.40;;;4.30;81.84
62952;BME280;52163;52.212;-1.002;2023-04-27T02:33:40;100748.73;;;4.24;81.80
62952;BME280;52163;52.212;-1.002;2023-04-27T02:36:07;100747.54;;;4.17;81.87
62952;BME280;52163;52.212;-1.002;2023-04-27T02:38:33;100741.41;;;4.11;82.01
62952;BME280;52163;52.212;-1.002;2023-04-27T02:40:58;100741.34;;;4.07;81.99
62952;BME280;52163;52.212;-1.002;2023-04-27T02:43:23;100737.23;;;4.04;82.05
62952;BME280;52163;52.212;-1.002;2023-04-27T02:45:49;100734.48;;;4.03;82.47
62952;BME280;52163;52.212;-1.002;2023-04-27T02:48:14;100736.77;;;4.02;82.68
62952;BME280;52163;52.212;-1.002;2023-04-27T02:50:41;100735.95;;;4.01;82.71
62952;BME280;52163;52.212;-1.002;2023-04-27T02:53:07;100734.62;;;3.99;82.50
62952;BME280;52163;52.212;-1.002;2023-04-27T02:55:32;100734.71;;;3.95;83.11
62952;BME280;52163;52.212;-1.002;2023-04-27T02:57:58;100734.83;;;3.91;83.14
62952;BME280;52163;52.212;-1.002;2023-04-27T03:00:24;100730.05;;;3.88;83.25
62952;BME280;52163;52.212;-1.002;2023-04-27T03:02:49;100730.27;;;3.86;83.49
62952;BME280;52163;52.212;-1.002;2023-04-27T03:05:15;100725.97;;;3.83;83.42
62952;BME280;52163;52.212;-1.002;2023-04-27T03:07:41;100723.39;;;3.82;83.85
62952;BME280;52163;52.212;-1.002;2023-04-27T03:10:07;100721.54;;;3.80;83.84
62952;BME280;52163;52.212;-1.002;2023-04-27T03:12:32;100723.16;;;3.77;83.99
62952;BME280;52163;52.212;-1.002;2023-04-27T03:14:58;100720.40;;;3.76;84.01
62952;BME280;52163;52.212;-1.002;2023-04-27T03:17:24;100720.43;;;3.75;84.18
62952;BME280;52163;52.212;-1.002;2023-04-27T03:19:49;100722.38;;;3.74;84.41
62952;BME280;52163;52.212;-1.002;2023-04-27T03:22:15;100720.20;;;3.71;84.32
62952;BME280;52163;52.212;-1.002;2023-04-27T03:24:40;100721.61;;;3.71;84.56
62952;BME280;52163;52.212;-1.002;2023-04-27T03:27:07;100723.23;;;3.69;84.66
62952;BME280;52163;52.212;-1.002;2023-04-27T03:29:32;100723.48;;;3.66;84.78
62952;BME280;52163;52.212;-1.002;2023-04-27T03:31:57;100723.54;;;3.64;84.96
62952;BME280;52163;52.212;-1.002;2023-04-27T03:34:23;100722.38;;;3.62;85.06
62952;BME280;52163;52.212;-1.002;2023-04-27T03:36:48;100719.63;;;3.60;85.46
62952;BME280;52163;52.212;-1.002;2023-04-27T03:39:15;100714.95;;;3.59;85.46
62952;BME280;52163;52.212;-1.002;2023-04-27T03:41:40;100711.98;;;3.59;85.77
62952;BME280;52163;52.212;-1.002;2023-04-27T03:44:06;100708.48;;;3.58;85.68
62952;BME280;52163;52.212;-1.002;2023-04-27T03:46:32;100702.64;;;3.62;86.18
62952;BME280;52163;52.212;-1.002;2023-04-27T03:48:57;100704.85;;;3.64;86.29
62952;BME280;52163;52.212;-1.002;2023-04-27T03:51:22;100700.85;;;3.64;85.96
62952;BME280;52163;52.212;-1.002;2023-04-27T03:53:48;100702.38;;;3.65;86.23
62952;BME280;52163;52.212;-1.002;2023-04-27T03:56:14;100700.31;;;3.64;86.09
62952;BME280;52163;52.212;-1.002;2023-04-27T03:58:39;100693.15;;;3.64;86.51
62952;BME280;52163;52.212;-1.002;2023-04-27T04:01:04;100691.79;;;3.63;86.01
62952;BME280;52163;52.212;-1.002;2023-04-27T04:03:30;100688.55;;;3.59;86.16
62952;BME280;52163;52.212;-1.002;2023-04-27T04:05:56;100687.77;;;3.56;86.29
62952;BME280;52163;52.212;-1.002;2023-04-27T04:08:21;100682.88;;;3.56;86.69
62952;BME280;52163;52.212;-1.002;2023-04-27T04:10:46;100678.67;;;3.56;86.66
62952;BME280;52163;52.212;-1.002;2023-04-27T04:13:12;100676.73;;;3.57;86.89
62952;BME280;52163;52.212;-1.002;2023-04-27T04:15:37;100676.36;;;3.58;87.06
62952;BME280;52163;52.212;-1.002;2023-04-27T04:18:03;100673.20;;;3.58;86.75
62952;BME280;52163;52.212;-1.002;2023-04-27T04:20:28;100671.98;;;3.58;86.85
62952;BME280;52163;52.212;-1.002;2023-04-27T04:22:53;100667.83;;;3.57;86.81
62952;BME280;52163;52.212;-1.002;2023-04-27T04:25:19;100669.39;;;3.57;86.95
62952;BME280;52163;52.212;-1.002;2023-04-27T04:27:45;100669.27;;;3.56;86.89
62952;BME280;52163;52.212;-1.002;2023-04-27T04:30:13;100668.98;;;3.54;86.64
62952;BME280;52163;52.212;-1.002;2023-04-27T04:32:39;100673.09;;;3.50;86.85
62952;BME280;52163;52.212;-1.002;2023-04-27T04:35:05;100674.40;;;3.47;86.62
62952;BME280;52163;52.212;-1.002;2023-04-27T04:37:32;100676.39;;;3.45;87.03
62952;BME280;52163;52.212;-1.002;2023-04-27T04:39:58;100674.76;;;3.47;87.35
62952;BME280;52163;52.212;-1.002;2023-04-27T04:42:24;100674.35;;;3.49;87.42
62952;BME280;52163;52.212;-1.002;2023-04-27T04:44:49;100668.95;;;3.48;87.24
62952;BME280;52163;52.212;-1.002;2023-04-27T04:47:15;100671.27;;;3.47;87.02
62952;BME280;52163;52.212;-1.002;2023-04-27T04:49:41;100670.20;;;3.47;87.09
62952;BME280;52163;52.212;-1.002;2023-04-27T04:52:07;100674.42;;;3.46;87.12
62952;BME280;52163;52.212;-1.002;2023-04-27T04:54:32;100677.20;;;3.47;87.09
62952;BME280;52163;52.212;-1.002;2023-04-27T04:56:57;100670.77;;;3.46;86.96
62952;BME280;52163;52.212;-1.002;2023-04-27T04:59:25;100663.95;;;3.46;87.06
62952;BME280;52163;52.212;-1.002;2023-04-27T05:01:51;100660.95;;;3.47;87.10
62952;BME280;52163;52.212;-1.002;2023-04-27T05:04:20;100651.41;;;3.51;87.57
62952;BME280;52163;52.212;-1.002;2023-04-27T05:06:45;100645.64;;;3.57;87.72
62952;BME280;52163;52.212;-1.002;2023-04-27T05:09:11;100649.23;;;3.66;88.00
62952;BME280;52163;52.212;-1.002;2023-04-27T05:11:36;100653.28;;;3.77;88.11
62952;BME280;52163;52.212;-1.002;2023-04-27T05:14:02;100654.26;;;3.86;87.83
62952;BME280;52163;52.212;-1.002;2023-04-27T05:16:27;100652.21;;;3.96;88.10
62952;BME280;52163;52.212;-1.002;2023-04-27T05:18:52;100651.69;;;4.07;87.78
62952;BME280;52163;52.212;-1.002;2023-04-27T05:21:19;100658.80;;;4.20;87.80
62952;BME280;52163;52.212;-1.002;2023-04-27T05:23:46;100663.39;;;4.35;87.50
62952;BME280;52163;52.212;-1.002;2023-04-27T05:26:17;100662.91;;;4.50;87.27
62952;BME280;52163;52.212;-1.002;2023-04-27T05:28:43;100660.19;;;4.64;86.97
62952;BME280;52163;52.212;-1.002;2023-04-27T05:31:09;100660.82;;;4.77;86.49
62952;BME280;52163;52.212;-1.002;2023-04-27T05:33:34;100659.48;;;4.86;86.27
62952;BME280;52163;52.212;-1.002;2023-04-27T05:36:00;100658.25;;;4.90;85.84
62952;BME280;52163;52.212;-1.002;2023-04-27T05:38:25;100657.59;;;4.94;85.61
62952;BME280;52163;52.212;-1.002;2023-04-27T05:40:55;100655.58;;;4.97;85.54
62952;BME280;52163;52.212;-1.002;2023-04-27T05:43:21;100655.85;;;5.04;85.65
62952;BME280;52163;52.212;-1.002;2023-04-27T05:45:46;100653.53;;;5.16;85.89
62952;BME280;52163;52.212;-1.002;2023-04-27T05:48:12;100657.92;;;5.25;85.47
62952;BME280;52163;52.212;-1.002;2023-04-27T05:50:38;100657.84;;;5.37;85.48
62952;BME280;52163;52.212;-1.002;2023-04-27T05:53:04;100656.45;;;5.47;84.83
62952;BME280;52163;52.212;-1.002;2023-04-27T05:55:30;100655.73;;;5.52;84.32
62952;BME280;52163;52.212;-1.002;2023-04-27T05:57:55;100659.54;;;5.58;84.29
62952;BME280;52163;52.212;-1.002;2023-04-27T06:00:21;100659.15;;;5.69;84.30
62952;BME280;52163;52.212;-1.002;2023-04-27T06:02:47;100659.18;;;5.77;84.22
62952;BME280;52163;52.212;-1.002;2023-04-27T06:05:12;100660.34;;;5.84;84.07
62952;BME280;52163;52.212;-1.002;2023-04-27T06:07:38;100645.89;;;5.90;84.13
62952;BME280;52163;52.212;-1.002;2023-04-27T06:10:04;100641.54;;;5.99;84.34
62952;BME280;52163;52.212;-1.002;2023-04-27T06:12:30;100636.99;;;6.08;84.41
62952;BME280;52163;52.212;-1.002;2023-04-27T06:14:56;100635.70;;;6.23;84.97
62952;BME280;52163;52.212;-1.002;2023-04-27T06:17:21;100636.42;;;6.35;85.26
62952;BME280;52163;52.212;-1.002;2023-04-27T06:19:47;100640.11;;;6.49;85.27
62952;BME280;52163;52.212;-1.002;2023-04-27T06:22:12;100631.24;;;6.59;85.27
62952;BME280;52163;52.212;-1.002;2023-04-27T06:24:38;100632.97;;;6.69;85.05
62952;BME280;52163;52.212;-1.002;2023-04-27T06:27:03;100626.60;;;6.78;85.27
62952;BME280;52163;52.212;-1.002;2023-04-27T06:29:28;100630.57;;;6.88;84.78
62952;BME280;52163;52.212;-1.002;2023-04-27T06:31:54;100623.83;;;6.94;84.65
62952;BME280;52163;52.212;-1.002;2023-04-27T06:34:19;100626.95;;;7.03;84.53
62952;BME280;52163;52.212;-1.002;2023-04-27T06:36:45;100625.80;;;7.13;84.40
62952;BME280;52163;52.212;-1.002;2023-04-27T06:39:11;100623.17;;;7.25;84.44
62952;BME280;52163;52.212;-1.002;2023-04-27T06:41:36;100623.64;;;7.38;84.52
62952;BME280;52163;52.212;-1.002;2023-04-27T06:44:02;100628.28;;;7.52;84.27
62952;BME280;52163;52.212;-1.002;2023-04-27T06:46:27;100624.68;;;7.65;83.90
62952;BME280;52163;52.212;-1.002;2023-04-27T06:48:52;100618.85;;;7.77;83.55
62952;BME280;52163;52.212;-1.002;2023-04-27T06:51:18;100618.91;;;7.87;83.19
62952;BME280;52163;52.212;-1.002;2023-04-27T06:53:43;100616.69;;;8.01;82.95
62952;BME280;52163;52.212;-1.002;2023-04-27T06:56:10;100618.24;;;8.13;82.48
62952;BME280;52163;52.212;-1.002;2023-04-27T06:58:36;100619.84;;;8.24;82.40
62952;BME280;52163;52.212;-1.002;2023-04-27T07:01:03;100618.96;;;8.38;82.13
62952;BME280;52163;52.212;-1.002;2023-04-27T07:03:29;100619.23;;;8.51;81.67
62952;BME280;52163;52.212;-1.002;2023-04-27T07:05:55;100622.30;;;8.67;80.89
62952;BME280;52163;52.212;-1.002;2023-04-27T07:08:21;100622.52;;;8.81;80.41
62952;BME280;52163;52.212;-1.002;2023-04-27T07:10:47;100624.35;;;8.93;80.05
62952;BME280;52163;52.212;-1.002;2023-04-27T07:13:12;100625.51;;;9.05;79.43
62952;BME280;52163;52.212;-1.002;2023-04-27T07:15:37;100623.99;;;9.20;79.42
62952;BME280;52163;52.212;-1.002;2023-04-27T07:18:03;100624.23;;;9.36;78.97
62952;BME280;52163;52.212;-1.002;2023-04-27T07:20:29;100623.33;;;9.50;77.81
62952;BME280;52163;52.212;-1.002;2023-04-27T07:22:55;100624.49;;;9.61;77.12
62952;BME280;52163;52.212;-1.002;2023-04-27T07:25:20;100626.56;;;9.75;76.66
62952;BME280;52163;52.212;-1.002;2023-04-27T07:27:45;100630.73;;;9.95;76.04
62952;BME280;52163;52.212;-1.002;2023-04-27T07:30:11;100625.82;;;10.14;75.25
62952;BME280;52163;52.212;-1.002;2023-04-27T07:32:41;100624.14;;;10.28;74.74
62952;BME280;52163;52.212;-1.002;2023-04-27T07:35:07;100627.20;;;10.40;74.01
62952;BME280;52163;52.212;-1.002;2023-04-27T07:37:36;100621.14;;;10.44;73.08
62952;BME280;52163;52.212;-1.002;2023-04-27T07:40:03;100621.05;;;10.42;72.29
62952;BME280;52163;52.212;-1.002;2023-04-27T07:42:41;100616.59;;;10.43;72.41
62952;BME280;52163;52.212;-1.002;2023-04-27T07:45:08;100613.17;;;10.47;71.89
62952;BME280;52163;52.212;-1.002;2023-04-27T07:47:34;100608.98;;;10.56;72.34
62952;BME280;52163;52.212;-1.002;2023-04-27T07:49:59;100605.27;;;10.68;71.81
62952;BME280;52163;52.212;-1.002;2023-04-27T07:52:25;100604.73;;;10.80;71.23
62952;BME280;52163;52.212;-1.002;2023-04-27T07:54:50;100606.63;;;10.90;70.90
62952;BME280;52163;52.212;-1.002;2023-04-27T07:57:16;100610.92;;;11.03;70.49
62952;BME280;52163;52.212;-1.002;2023-04-27T07:59:42;100616.20;;;11.21;70.27
62952;BME280;52163;52.212;-1.002;2023-04-27T08:02:07;100617.70;;;11.35;68.74
62952;BME280;52163;52.212;-1.002;2023-04-27T08:04:32;100618.92;;;11.41;68.59
62952;BME280;52163;52.212;-1.002;2023-04-27T08:06:58;100625.77;;;11.53;68.32
62952;BME280;52163;52.212;-1.002;2023-04-27T08:09:24;100627.96;;;11.69;68.23
62952;BME280;52163;52.212;-1.002;2023-04-27T08:11:51;100622.72;;;11.82;67.40
62952;BME280;52163;52.212;-1.002;2023-04-27T08:14:16;100618.05;;;11.88;66.91
62952;BME280;52163;52.212;-1.002;2023-04-27T08:16:43;100618.05;;;11.99;66.46
62952;BME280;52163;52.212;-1.002;2023-04-27T08:19:09;100620.36;;;12.11;66.03
62952;BME280;52163;52.212;-1.002;2023-04-27T08:21:39;100620.83;;;12.17;65.49
62952;BME280;52163;52.212;-1.002;2023-04-27T08:24:05;100614.08;;;12.15;65.09
62952;BME280;52163;52.212;-1.002;2023-04-27T08:26:31;100611.10;;;12.14;65.40
62952;BME280;52163;52.212;-1.002;2023-04-27T08:28:57;100607.09;;;12.22;65.25
62952;BME280;52163;52.212;-1.002;2023-04-27T08:31:25;100603.77;;;12.29;65.14
62952;BME280;52163;52.212;-1.002;2023-04-27T08:33:51;100602.13;;;12.43;65.19
62952;BME280;52163;52.212;-1.002;2023-04-27T08:36:21;100601.28;;;12.59;64.33
62952;BME280;52163;52.212;-1.002;2023-04-27T08:38:52;100597.25;;;12.74;63.34
62952;BME280;52163;52.212;-1.002;2023-04-27T08:41:19;100599.52;;;12.91;62.99
62952;BME280;52163;52.212;-1.002;2023-04-27T08:43:46;100596.44;;;13.09;62.62
62952;BME280;52163;52.212;-1.002;2023-04-27T08:46:19;100592.74;;;13.24;62.39
62952;BME280;52163;52.212;-1.002;2023-04-27T08:48:48;100585.31;;;13.36;61.81
62952;BME280;52163;52.212;-1.002;2023-04-27T08:51:14;100580.75;;;13.54;61.17
62952;BME280;52163;52.212;-1.002;2023-04-27T08:53:51;100565.04;;;13.73;60.40
62952;BME280;52163;52.212;-1.002;2023-04-27T08:56:18;100559.98;;;13.89;59.25
62952;BME280;52163;52.212;-1.002;2023-04-27T08:58:44;100555.19;;;14.03;58.89
62952;BME280;52163;52.212;-1.002;2023-04-27T09:01:10;100552.73;;;14.22;58.85
62952;BME280;52163;52.212;-1.002;2023-04-27T09:03:36;100552.30;;;14.35;57.98
62952;BME280;52163;52.212;-1.002;2023-04-27T09:06:03;100555.64;;;14.38;57.16
62952;BME280;52163;52.212;-1.002;2023-04-27T09:08:43;100551.96;;;14.42;56.95
62952;BME280;52163;52.212;-1.002;2023-04-27T09:11:09;100554.30;;;14.46;56.84
62952;BME280;52163;52.212;-1.002;2023-04-27T09:13:36;100553.82;;;14.48;56.55
62952;BME280;52163;52.212;-1.002;2023-04-27T09:16:02;100546.67;;;14.50;55.94
62952;BME280;52163;52.212;-1.002;2023-04-27T09:18:27;100550.71;;;14.56;55.86
62952;BME280;52163;52.212;-1.002;2023-04-27T09:20:53;100548.55;;;14.61;55.53
62952;BME280;52163;52.212;-1.002;2023-04-27T09:23:34;100545.73;;;14.63;55.25
62952;BME280;52163;52.212;-1.002;2023-04-27T09:26:02;100531.89;;;14.61;54.96
62952;BME280;52163;52.212;-1.002;2023-04-27T09:28:30;100529.78;;;14.62;54.10
62952;BME280;52163;52.212;-1.002;2023-04-27T09:31:01;100533.20;;;14.57;53.84
62952;BME280;52163;52.212;-1.002;2023-04-27T09:33:30;100533.83;;;14.54;53.47
62952;BME280;52163;52.212;-1.002;2023-04-27T09:35:58;100532.59;;;14.46;53.17
62952;BME280;52163;52.212;-1.002;2023-04-27T09:38:23;100534.96;;;14.41;53.14
62952;BME280;52163;52.212;-1.002;2023-04-27T09:40:50;100530.71;;;14.43;53.42
62952;BME280;52163;52.212;-1.002;2023-04-27T09:43:16;100523.39;;;14.46;53.29
62952;BME280;52163;52.212;-1.002;2023-04-27T09:45:42;100518.35;;;14.49;52.90
62952;BME280;52163;52.212;-1.002;2023-04-27T09:48:09;100511.02;;;14.55;52.79
62952;BME280;52163;52.212;-1.002;2023-04-27T09:50:39;100506.55;;;14.64;52.55
62952;BME280;52163;52.212;-1.002;2023-04-27T09:53:10;100503.66;;;14.69;51.96
62952;BME280;52163;52.212;-1.002;2023-04-27T10:07:00;100482.60;;;14.61;50.81
62952;BME280;52163;52.212;-1.002;2023-04-27T10:09:34;100482.18;;;14.66;50.83
62952;BME280;52163;52.212;-1.002;2023-04-27T10:14:49;100493.59;;;14.85;49.23
62952;BME280;52163;52.212;-1.002;2023-04-27T10:17:16;100494.55;;;14.93;49.23
62952;BME280;52163;52.212;-1.002;2023-04-27T10:19:52;100494.30;;;14.96;48.49
62952;BME280;52163;52.212;-1.002;2023-04-27T10:22:21;100489.63;;;15.03;48.06
62952;BME280;52163;52.212;-1.002;2023-04-27T10:24:49;100490.27;;;15.13;47.59
62952;BME280;52163;52.212;-1.002;2023-04-27T10:27:17;100481.27;;;15.17;47.54
62952;BME280;52163;52.212;-1.002;2023-04-27T10:29:49;100481.65;;;15.08;47.40
62952;BME280;52163;52.212;-1.002;2023-04-27T10:32:20;100474.85;;;14.97;47.45
62952;BME280;52163;52.212;-1.002;2023-04-27T10:34:47;100470.23;;;14.90;47.68
62952;BME280;52163;52.212;-1.002;2023-04-27T10:37:14;100466.23;;;14.76;47.22
62952;BME280;52163;52.212;-1.002;2023-04-27T10:39:42;100463.55;;;14.64;46.74
62952;BME280;52163;52.212;-1.002;2023-04-27T10:42:07;100461.95;;;14.50;46.82
62952;BME280;52163;52.212;-1.002;2023-04-27T10:44:34;100454.27;;;14.41;46.87
62952;BME280;52163;52.212;-1.002;2023-04-27T10:47:10;100447.77;;;14.36;46.93
62952;BME280;52163;52.212;-1.002;2023-04-27T10:49:37;100443.98;;;14.32;47.11
62952;BME280;52163;52.212;-1.002;2023-04-27T10:52:04;100446.80;;;14.30;47.37
62952;BME280;52163;52.212;-1.002;2023-04-27T10:54:30;100445.92;;;14.25;47.31
62952;BME280;52163;52.212;-1.002;2023-04-27T10:57:09;100435.62;;;14.25;47.12
62952;BME280;52163;52.212;-1.002;2023-04-27T10:59:52;100436.44;;;14.33;46.98
62952;BME280;52163;52.212;-1.002;2023-04-27T11:02:26;100435.42;;;14.51;47.01
62952;BME280;52163;52.212;-1.002;2023-04-27T11:04:54;100434.58;;;14.66;46.82
62952;BME280;52163;52.212;-1.002;2023-04-27T11:07:24;100429.54;;;14.79;47.03
62952;BME280;52163;52.212;-1.002;2023-04-27T11:09:50;100428.73;;;14.94;47.06
62952;BME280;52163;52.212;-1.002;2023-04-27T11:12:16;100427.84;;;15.02;46.94
62952;BME280;52163;52.212;-1.002;2023-04-27T11:14:41;100418.94;;;15.05;46.25
62952;BME280;52163;52.212;-1.002;2023-04-27T11:17:07;100412.66;;;15.01;46.35
62952;BME280;52163;52.212;-1.002;2023-04-27T11:19:43;100410.65;;;15.04;46.62
62952;BME280;52163;52.212;-1.002;2023-04-27T11:22:10;100410.25;;;15.13;46.03
62952;BME280;52163;52.212;-1.002;2023-04-27T11:24:35;100410.78;;;15.24;46.40
62952;BME280;52163;52.212;-1.002;2023-04-27T11:27:01;100404.18;;;15.31;46.36
62952;BME280;52163;52.212;-1.002;2023-04-27T11:29:36;100398.59;;;15.34;46.37
62952;BME280;52163;52.212;-1.002;2023-04-27T11:32:03;100395.64;;;15.33;46.15
62952;BME280;52163;52.212;-1.002;2023-04-27T11:34:29;100393.63;;;15.32;45.82
62952;BME280;52163;52.212;-1.002;2023-04-27T11:37:01;100388.61;;;15.26;45.28
62952;BME280;52163;52.212;-1.002;2023-04-27T11:39:31;100388.63;;;15.17;45.16
62952;BME280;52163;52.212;-1.002;2023-04-27T11:42:33;100381.06;;;15.16;44.97
62952;BME280;52163;52.212;-1.002;2023-04-27T11:45:05;100383.36;;;15.04;45.18
62952;BME280;52163;52.212;-1.002;2023-04-27T11:47:32;100379.84;;;14.89;45.27
62952;BME280;52163;52.212;-1.002;2023-04-27T11:49:59;100378.56;;;14.78;45.68
62952;BME280;52163;52.212;-1.002;2023-04-27T11:52:30;100373.61;;;14.66;46.02
62952;BME280;52163;52.212;-1.002;2023-04-27T11:54:56;100372.21;;;14.50;45.98
62952;BME280;52163;52.212;-1.002;2023-04-27T11:57:26;100369.43;;;14.40;46.41
62952;BME280;52163;52.212;-1.002;2023-04-27T11:59:55;100358.98;;;14.35;46.60
62952;BME280;52163;52.212;-1.002;2023-04-27T12:02:21;100357.25;;;14.41;46.86
62952;BME280;52163;52.212;-1.002;2023-04-27T12:04:48;100354.15;;;14.47;46.79
62952;BME280;52163;52.212;-1.002;2023-04-27T12:07:13;100347.31;;;14.59;46.94
62952;BME280;52163;52.212;-1.002;2023-04-27T12:09:39;100345.94;;;14.70;46.85
62952;BME280;52163;52.212;-1.002;2023-04-27T12:12:05;100342.63;;;14.71;46.68
62952;BME280;52163;52.212;-1.002;2023-04-27T12:14:31;100345.64;;;14.64;46.94
62952;BME280;52163;52.212;-1.002;2023-04-27T12:16:57;100344.37;;;14.56;47.07
62952;BME280;52163;52.212;-1.002;2023-04-27T12:19:22;100342.67;;;14.42;47.35
62952;BME280;52163;52.212;-1.002;2023-04-27T12:21:51;100346.83;;;14.27;47.46
62952;BME280;52163;52.212;-1.002;2023-04-27T12:24:18;100345.55;;;14.25;47.58
62952;BME280;52163;52.212;-1.002;2023-04-27T12:26:44;100342.77;;;14.31;47.71
62952;BME280;52163;52.212;-1.002;2023-04-27T12:29:11;100342.42;;;14.38;47.98
62952;BME280;52163;52.212;-1.002;2023-04-27T12:31:37;100336.28;;;14.48;48.00
62952;BME280;52163;52.212;-1.002;2023-04-27T12:34:02;100341.98;;;14.66;47.90
62952;BME280;52163;52.212;-1.002;2023-04-27T12:36:28;100343.09;;;14.84;48.03
62952;BME280;52163;52.212;-1.002;2023-04-27T12:38:58;100338.56;;;14.96;47.92
62952;BME280;52163;52.212;-1.002;2023-04-27T12:41:24;100338.47;;;15.08;47.99
62952;BME280;52163;52.212;-1.002;2023-04-27T12:43:50;100337.97;;;15.12;47.79
62952;BME280;52163;52.212;-1.002;2023-04-27T12:46:16;100335.82;;;14.97;47.57
62952;BME280;52163;52.212;-1.002;2023-04-27T12:48:44;100330.80;;;14.93;48.12
62952;BME280;52163;52.212;-1.002;2023-04-27T12:51:10;100335.02;;;14.96;47.82
62952;BME280;52163;52.212;-1.002;2023-04-27T12:53:37;100338.68;;;15.01;48.05
62952;BME280;52163;52.212;-1.002;2023-04-27T12:56:02;100335.35;;;15.00;47.83